createdAt,value
2022-09-15T00:02:11.848Z,100820.66
2022-09-15T00:04:38.459Z,100820.34
2022-09-15T00:07:04.973Z,100833.53
2022-09-15T00:09:31.844Z,100826.78
2022-09-15T00:11:58.440Z,100829.94
2022-09-15T00:14:24.941Z,100824.69
2022-09-15T00:16:51.785Z,100824.34
2022-09-15T00:19:18.286Z,100826.88
2022-09-15T00:21:44.794Z,100816.09
2022-09-15T00:24:11.487Z,100820.78
2022-09-15T00:26:38.327Z,100822.78
2022-09-15T00:29:05.022Z,100826.00
2022-09-15T00:31:32.177Z,100816.81
2022-09-15T00:34:02.538Z,100812.00
2022-09-15T00:36:29.116Z,100818.94
2022-09-15T00:38:55.744Z,100816.41
2022-09-15T00:41:23.589Z,100816.81
2022-09-15T00:44:05.678Z,100815.94
2022-09-15T00:46:37.369Z,100811.34
2022-09-15T00:49:17.668Z,100787.44
2022-09-15T00:51:59.303Z,100804.66
2022-09-15T00:54:31.088Z,100803.31
2022-09-15T00:56:58.776Z,100805.84
2022-09-15T00:59:28.521Z,100800.75
2022-09-15T01:01:58.879Z,100785.34
2022-09-15T01:04:25.758Z,100780.28
2022-09-15T01:06:58.769Z,100776.25
2022-09-15T01:09:33.527Z,100766.38
2022-09-15T01:12:00.325Z,100782.72
2022-09-15T01:14:26.875Z,100777.28
2022-09-15T01:17:07.322Z,100785.28
2022-09-15T01:20:10.384Z,100776.81
2022-09-15T01:23:14.433Z,100767.56
2022-09-15T01:25:59.678Z,100775.44
2022-09-15T01:29:22.584Z,100777.91
2022-09-15T01:32:16.801Z,100774.53
2022-09-15T01:34:55.056Z,100759.44
2022-09-15T01:37:24.825Z,100758.31
2022-09-15T01:39:52.942Z,100760.56
2022-09-15T01:42:20.555Z,100747.16
2022-09-15T01:44:58.021Z,100729.94
2022-09-15T01:47:26.091Z,100727.44
2022-09-15T01:49:55.179Z,100719.25
2022-09-15T01:52:23.836Z,100707.72
2022-09-15T01:54:58.140Z,100710.44
2022-09-15T01:57:24.916Z,100707.78
2022-09-15T01:59:54.261Z,100706.88
2022-09-15T02:02:25.123Z,100695.63
2022-09-15T02:05:01.068Z,100699.16
2022-09-15T02:07:52.095Z,100693.16
2022-09-15T02:10:29.313Z,100691.50
2022-09-15T02:13:06.265Z,100679.41
2022-09-15T02:15:42.889Z,100656.84
2022-09-15T02:18:13.148Z,100659.69
2022-09-15T02:20:53.449Z,100658.91
2022-09-15T02:23:26.306Z,100677.16
2022-09-15T02:25:57.275Z,100671.38
2022-09-15T02:28:29.573Z,100679.66
2022-09-15T02:30:57.913Z,100678.59
2022-09-15T02:33:26.156Z,100674.53
2022-09-15T02:35:52.988Z,100666.72
2022-09-15T02:38:19.545Z,100673.59
2022-09-15T02:40:46.648Z,100662.63
2022-09-15T02:43:16.728Z,100650.44
2022-09-15T02:45:43.567Z,100640.31
2022-09-15T02:48:10.296Z,100629.81
2022-09-15T02:50:37.740Z,100628.75
2022-09-15T02:53:04.852Z,100640.31
2022-09-15T02:55:31.451Z,100625.69
2022-09-15T02:57:58.781Z,100619.19
2022-09-15T03:00:26.911Z,100622.78
2022-09-15T03:02:54.504Z,100615.81
2022-09-15T03:05:27.120Z,100613.47
2022-09-15T03:07:54.506Z,100616.84
2022-09-15T03:10:21.656Z,100623.97
2022-09-15T03:12:52.557Z,100616.44
2022-09-15T03:15:21.502Z,100611.00
2022-09-15T03:17:48.473Z,100610.81
2022-09-15T03:20:20.374Z,100599.75
2022-09-15T03:22:47.964Z,100594.31
2022-09-15T03:25:14.441Z,100590.16
2022-09-15T03:27:40.931Z,100592.88
2022-09-15T03:30:08.333Z,100586.78
2022-09-15T03:32:35.196Z,100596.38
2022-09-15T03:35:01.892Z,100577.03
2022-09-15T03:37:28.577Z,100568.22
2022-09-15T03:39:55.804Z,100577.81
2022-09-15T03:42:22.369Z,100572.56
2022-09-15T03:44:48.981Z,100576.31
2022-09-15T03:47:15.709Z,100588.69
2022-09-15T03:49:42.342Z,100585.13
2022-09-15T03:52:08.874Z,100577.81
2022-09-15T03:54:35.637Z,100581.75
2022-09-15T03:57:03.390Z,100574.00
2022-09-15T03:59:29.902Z,100554.75
2022-09-15T04:01:56.415Z,100546.38
2022-09-15T04:04:22.954Z,100558.09
2022-09-15T04:06:49.408Z,100555.00
2022-09-15T04:09:16.229Z,100546.13
2022-09-15T04:11:42.856Z,100542.84
2022-09-15T04:14:09.381Z,100551.91
2022-09-15T04:16:36.188Z,100555.53
2022-09-15T04:19:02.791Z,100557.47
2022-09-15T04:21:31.873Z,100544.69
2022-09-15T04:23:58.367Z,100532.97
2022-09-15T04:26:26.485Z,100539.28
2022-09-15T04:28:52.967Z,100534.25
2022-09-15T04:31:20.461Z,100537.81
2022-09-15T04:33:47.650Z,100535.56
2022-09-15T04:36:19.187Z,100531.78
2022-09-15T04:38:45.696Z,100532.56
2022-09-15T04:41:12.948Z,100533.59
2022-09-15T04:43:39.748Z,100525.63
2022-09-15T04:46:06.425Z,100531.06
2022-09-15T04:48:33.048Z,100524.78
2022-09-15T04:51:07.478Z,100521.22
2022-09-15T04:53:35.179Z,100520.59
2022-09-15T04:56:06.150Z,100522.19
2022-09-15T04:58:39.187Z,100512.25
2022-09-15T05:01:13.983Z,100518.50
2022-09-15T05:03:41.271Z,100516.56
2022-09-15T05:06:09.673Z,100511.69
2022-09-15T05:08:36.648Z,100513.38
2022-09-15T05:11:06.041Z,100511.50
2022-09-15T05:13:33.454Z,100507.53
2022-09-15T05:16:07.366Z,100514.50
2022-09-15T05:18:35.633Z,100514.03
2022-09-15T05:21:02.816Z,100537.06
2022-09-15T05:23:29.797Z,100538.53
2022-09-15T05:26:01.191Z,100533.47
2022-09-15T05:28:28.008Z,100555.25
2022-09-15T05:30:55.515Z,100550.69
2022-09-15T05:33:23.465Z,100542.09
2022-09-15T05:35:50.972Z,100548.19
2022-09-15T05:38:17.872Z,100554.47
2022-09-15T05:40:44.397Z,100565.84
2022-09-15T05:43:11.379Z,100566.25
2022-09-15T05:45:37.938Z,100566.16
2022-09-15T05:48:04.804Z,100567.25
2022-09-15T05:50:31.382Z,100570.56
2022-09-15T05:52:58.154Z,100569.91
2022-09-15T05:55:24.744Z,100563.94
2022-09-15T05:57:51.225Z,100569.94
2022-09-15T06:00:19.022Z,100570.38
2022-09-15T06:02:45.575Z,100568.78
2022-09-15T06:05:12.202Z,100578.72
2022-09-15T06:07:39.190Z,100570.81
2022-09-15T06:10:06.517Z,100574.19
2022-09-15T06:12:33.033Z,100567.97
2022-09-15T06:14:59.845Z,100574.06
2022-09-15T06:17:26.441Z,100577.03
2022-09-15T06:19:52.966Z,100577.03
2022-09-15T06:22:19.461Z,100583.13
2022-09-15T06:24:46.153Z,100584.25
2022-09-15T06:27:12.771Z,100585.09
2022-09-15T06:29:39.262Z,100580.28
2022-09-15T06:32:05.850Z,100584.06
2022-09-15T06:34:35.431Z,100573.34
2022-09-15T06:37:01.974Z,100573.16
2022-09-15T06:39:28.979Z,100567.97
2022-09-15T06:42:04.232Z,100566.81
2022-09-15T06:44:32.233Z,100561.81
2022-09-15T06:46:58.886Z,100565.66
2022-09-15T06:49:25.983Z,100572.81
2022-09-15T06:51:52.518Z,100569.91
2022-09-15T06:54:19.356Z,100574.38
2022-09-15T06:56:45.913Z,100571.94
2022-09-15T06:59:13.251Z,100564.22
2022-09-15T07:01:40.384Z,100561.81
2022-09-15T07:04:10.519Z,100561.47
2022-09-15T07:06:39.045Z,100559.78
2022-09-15T07:09:06.266Z,100561.53
2022-09-15T07:11:33.192Z,100559.69
2022-09-15T07:13:59.980Z,100563.31
2022-09-15T07:16:26.631Z,100564.41
2022-09-15T07:18:56.598Z,100556.03
2022-09-15T07:21:23.823Z,100558.19
2022-09-15T07:23:50.471Z,100554.22
2022-09-15T07:26:17.980Z,100558.88
2022-09-15T07:28:46.678Z,100546.75
2022-09-15T07:31:15.565Z,100547.88
2022-09-15T07:33:42.429Z,100551.44
2022-09-15T07:36:10.175Z,100553.34
2022-09-15T07:38:40.556Z,100546.84
2022-09-15T07:41:09.809Z,100549.78
2022-09-15T07:43:36.386Z,100539.50
2022-09-15T07:46:03.584Z,100532.16
2022-09-15T07:48:30.290Z,100529.81
2022-09-15T07:50:57.118Z,100532.13
2022-09-15T07:53:23.613Z,100529.84
2022-09-15T07:55:53.517Z,100531.72
2022-09-15T07:58:20.703Z,100538.03
2022-09-15T08:00:50.090Z,100531.91
2022-09-15T08:03:16.995Z,100534.84
2022-09-15T08:05:45.610Z,100538.41
2022-09-15T08:08:12.423Z,100541.75
2022-09-15T08:10:40.167Z,100543.41
2022-09-15T08:13:06.670Z,100544.22
2022-09-15T08:15:38.809Z,100554.72
2022-09-15T08:18:06.301Z,100549.03
2022-09-15T08:20:33.626Z,100553.22
2022-09-15T08:23:00.161Z,100560.94
2022-09-15T08:25:26.897Z,100565.97
2022-09-15T08:27:54.585Z,100568.03
2022-09-15T08:30:21.254Z,100575.38
2022-09-15T08:32:48.071Z,100580.19
2022-09-15T08:35:16.639Z,100580.34
2022-09-15T08:37:43.112Z,100578.03
2022-09-15T08:40:16.924Z,100566.22
2022-09-15T08:42:45.213Z,100569.28
2022-09-15T08:45:28.651Z,100565.22
2022-09-15T08:47:59.955Z,100557.56
2022-09-15T08:50:31.117Z,100559.63
2022-09-15T08:53:06.870Z,100555.09
2022-09-15T08:55:41.496Z,100550.78
2022-09-15T08:58:15.345Z,100550.31
2022-09-15T09:00:42.542Z,100555.25
2022-09-15T09:03:32.231Z,100558.78
2022-09-15T09:06:01.297Z,100552.84
2022-09-15T09:09:06.281Z,100560.00
2022-09-15T09:11:43.434Z,100567.63
2022-09-15T09:14:23.727Z,100562.16
2022-09-15T09:17:08.984Z,100569.53
2022-09-15T09:19:38.642Z,100562.16
2022-09-15T09:22:11.560Z,100563.81
2022-09-15T09:24:53.035Z,100566.72
2022-09-15T09:27:23.496Z,100559.19
2022-09-15T09:30:20.453Z,100564.44
2022-09-15T09:33:06.283Z,100570.19
2022-09-15T09:35:43.802Z,100568.47
2022-09-15T09:38:16.104Z,100567.94
2022-09-15T09:40:43.061Z,100563.16
2022-09-15T09:43:11.113Z,100561.41
2022-09-15T09:45:37.941Z,100553.28
2022-09-15T09:48:15.354Z,100549.25
2022-09-15T09:50:45.773Z,100543.63
2022-09-15T09:53:33.346Z,100540.25
2022-09-15T09:56:11.978Z,100542.41
2022-09-15T09:58:38.570Z,100543.94
2022-09-15T10:01:17.055Z,100543.34
2022-09-15T10:03:45.240Z,100534.75
2022-09-15T10:06:16.264Z,100535.34
2022-09-15T10:09:05.966Z,100528.06
2022-09-15T10:11:39.000Z,100525.78
2022-09-15T10:14:06.246Z,100534.41
2022-09-15T10:16:33.060Z,100521.16
2022-09-15T10:18:59.650Z,100529.88
2022-09-15T10:21:26.413Z,100525.13
2022-09-15T10:23:53.032Z,100518.69
2022-09-15T10:26:21.331Z,100519.63
2022-09-15T10:29:13.942Z,100515.44
2022-09-15T10:31:41.032Z,100513.88
2022-09-15T10:34:25.404Z,100510.63
2022-09-15T10:36:55.495Z,100508.22
2022-09-15T10:39:32.157Z,100503.06
2022-09-15T10:42:28.066Z,100494.13
2022-09-15T10:45:01.301Z,100487.19
2022-09-15T10:47:40.010Z,100488.53
2022-09-15T10:50:14.558Z,100475.25
2022-09-15T10:53:10.792Z,100491.63
2022-09-15T10:55:58.954Z,100475.59
2022-09-15T10:58:45.645Z,100467.94
2022-09-15T11:01:27.815Z,100479.53
2022-09-15T11:03:54.306Z,100468.53
2022-09-15T11:06:30.175Z,100464.25
2022-09-15T11:09:29.066Z,100454.72
2022-09-15T11:12:04.539Z,100451.69
2022-09-15T11:14:52.849Z,100444.06
2022-09-15T11:17:44.349Z,100448.13
2022-09-15T11:20:29.291Z,100439.91
2022-09-15T11:23:11.237Z,100433.66
2022-09-15T11:25:43.276Z,100444.28
2022-09-15T11:28:22.887Z,100431.44
2022-09-15T11:31:00.725Z,100434.09
2022-09-15T11:33:42.767Z,100427.56
2022-09-15T11:36:14.468Z,100419.16
2022-09-15T11:38:54.985Z,100416.72
2022-09-15T11:41:33.684Z,100418.34
2022-09-15T11:44:27.687Z,100414.38
2022-09-15T11:47:00.198Z,100412.59
2022-09-15T11:49:41.844Z,100413.66
2022-09-15T11:52:22.825Z,100415.81
2022-09-15T11:54:56.805Z,100418.56
2022-09-15T11:57:28.245Z,100418.56
2022-09-15T11:59:59.020Z,100415.00
2022-09-15T12:02:35.247Z,100413.06
2022-09-15T12:05:33.079Z,100404.56
2022-09-15T12:08:04.594Z,100404.09
2022-09-15T12:10:36.282Z,100399.81
2022-09-15T12:13:03.185Z,100401.88
2022-09-15T12:15:29.993Z,100406.44
2022-09-15T12:18:06.553Z,100390.44
2022-09-15T12:20:51.458Z,100387.22
2022-09-15T12:23:26.898Z,100384.22
2022-09-15T12:26:02.649Z,100383.97
2022-09-15T12:28:52.129Z,100381.69
2022-09-15T12:31:28.101Z,100375.38
2022-09-15T12:34:34.243Z,100374.19
2022-09-15T12:37:11.293Z,100367.25
2022-09-15T12:39:40.597Z,100373.00
2022-09-15T12:42:15.098Z,100365.84
2022-09-15T12:44:47.699Z,100363.84
2022-09-15T12:47:40.645Z,100366.69
2022-09-15T12:50:07.585Z,100355.81
2022-09-15T12:53:01.834Z,100351.72
2022-09-15T12:55:32.174Z,100354.75
2022-09-15T12:58:10.375Z,100344.41
2022-09-15T13:00:54.792Z,100342.38
2022-09-15T13:03:49.432Z,100337.44
2022-09-15T13:06:18.308Z,100336.63
2022-09-15T13:09:15.513Z,100332.78
2022-09-15T13:14:38.545Z,100331.31
2022-09-15T13:17:16.699Z,100328.38
2022-09-15T13:19:47.899Z,100323.50
2022-09-15T13:22:25.323Z,100326.88
2022-09-15T13:25:01.611Z,100320.19
2022-09-15T13:28:05.201Z,100321.03
2022-09-15T13:31:03.550Z,100314.44
2022-09-15T13:39:59.919Z,100318.63
2022-09-15T13:43:08.542Z,100311.56
2022-09-15T13:45:47.526Z,100307.13
2022-09-15T13:48:27.185Z,100300.56
2022-09-15T13:51:01.595Z,100303.53
2022-09-15T13:53:37.386Z,100295.06
2022-09-15T13:56:08.371Z,100285.47
2022-09-15T14:01:23.146Z,100292.91
2022-09-15T14:03:55.404Z,100286.38
2022-09-15T14:06:30.515Z,100277.00
2022-09-15T14:08:59.012Z,100272.75
2022-09-15T14:11:29.235Z,100270.31
2022-09-15T14:13:56.633Z,100273.81
2022-09-15T14:16:28.019Z,100268.91
2022-09-15T14:18:57.688Z,100263.75
2022-09-15T14:21:34.784Z,100260.00
2022-09-15T14:24:07.059Z,100255.34
2022-09-15T14:26:35.674Z,100251.94
2022-09-15T14:29:06.565Z,100249.13
2022-09-15T14:31:42.431Z,100242.44
2022-09-15T14:34:17.035Z,100245.44
2022-09-15T14:36:43.582Z,100242.44
2022-09-15T14:39:17.926Z,100243.03
2022-09-15T14:41:45.075Z,100236.41
2022-09-15T14:47:28.271Z,100226.91
2022-09-15T14:50:17.345Z,100232.53
2022-09-15T14:52:48.374Z,100226.22
2022-09-15T14:55:35.943Z,100227.56
2022-09-15T14:58:06.254Z,100230.31
2022-09-15T15:00:38.258Z,100222.31
2022-09-15T15:03:30.160Z,100226.69
2022-09-15T15:06:02.743Z,100230.13
2022-09-15T15:09:18.991Z,100218.50
2022-09-15T15:11:48.412Z,100232.75
2022-09-15T15:14:16.555Z,100219.56
2022-09-15T15:16:57.246Z,100232.47
2022-09-15T15:20:00.430Z,100222.22
2022-09-15T15:22:27.560Z,100229.56
2022-09-15T15:24:55.200Z,100218.59
2022-09-15T15:27:41.337Z,100221.03
2022-09-15T15:36:27.551Z,100222.66
2022-09-15T15:39:04.109Z,100221.50
2022-09-15T15:41:40.119Z,100216.50
2022-09-15T15:44:39.845Z,100216.38
2022-09-15T15:47:36.005Z,100214.16
2022-09-15T15:50:13.956Z,100211.88
2022-09-15T15:52:41.697Z,100211.41
2022-09-15T15:55:08.487Z,100217.97
2022-09-15T15:57:38.137Z,100206.13
2022-09-15T16:00:17.725Z,100211.13
2022-09-15T16:02:48.057Z,100208.97
2022-09-15T16:05:18.077Z,100215.91
2022-09-15T16:07:46.002Z,100224.25
2022-09-15T16:10:21.821Z,100223.06
2022-09-15T16:12:57.306Z,100226.75
2022-09-15T16:15:35.937Z,100217.75
2022-09-15T16:18:03.666Z,100227.41
2022-09-15T16:20:30.644Z,100223.78
2022-09-15T16:22:57.777Z,100228.19
2022-09-15T16:25:29.924Z,100237.88
2022-09-15T16:27:56.607Z,100248.47
2022-09-15T16:30:23.175Z,100242.75
2022-09-15T16:32:49.821Z,100233.19
2022-09-15T16:35:27.070Z,100255.38
2022-09-15T16:37:53.746Z,100250.22
2022-09-15T16:40:20.433Z,100248.88
2022-09-15T16:42:51.231Z,100240.25
2022-09-15T16:45:30.829Z,100244.16
2022-09-15T16:47:57.657Z,100245.31
2022-09-15T16:50:27.938Z,100261.88
2022-09-15T16:52:58.527Z,100275.25
2022-09-15T16:55:39.489Z,100274.88
2022-09-15T16:58:06.852Z,100265.63
2022-09-15T17:00:35.906Z,100270.13
2022-09-15T17:03:03.955Z,100275.69
2022-09-15T17:05:45.174Z,100277.81
2022-09-15T17:08:14.712Z,100273.63
2022-09-15T17:10:42.070Z,100272.94
2022-09-15T17:13:10.821Z,100280.34
2022-09-15T17:15:39.583Z,100282.25
2022-09-15T17:18:10.723Z,100286.28
2022-09-15T17:20:39.328Z,100285.69
2022-09-15T17:23:23.841Z,100278.75
2022-09-15T17:25:57.414Z,100268.25
2022-09-15T17:28:36.147Z,100264.91
2022-09-15T17:31:13.837Z,100269.78
2022-09-15T17:33:40.902Z,100297.88
2022-09-15T17:36:08.105Z,100271.16
2022-09-15T17:38:34.885Z,100282.78
2022-09-15T17:41:01.548Z,100282.19
2022-09-15T17:43:30.132Z,100295.53
2022-09-15T17:45:57.082Z,100285.00
2022-09-15T17:48:23.941Z,100294.28
2022-09-15T17:50:51.626Z,100295.53
2022-09-15T17:53:25.272Z,100292.53
2022-09-15T17:55:51.996Z,100300.53
2022-09-15T17:58:18.745Z,100310.44
2022-09-15T18:00:47.786Z,100305.78
2022-09-15T18:03:27.968Z,100301.00
2022-09-15T18:05:59.644Z,100292.59
2022-09-15T18:08:27.092Z,100297.72
2022-09-15T18:10:54.205Z,100288.03
2022-09-15T18:13:26.368Z,100286.38
2022-09-15T18:15:54.139Z,100291.25
2022-09-15T18:18:26.533Z,100294.81
2022-09-15T18:20:54.396Z,100289.13
2022-09-15T18:23:35.371Z,100291.84
2022-09-15T18:26:26.273Z,100298.38
2022-09-15T18:28:54.844Z,100295.03
2022-09-15T18:31:22.155Z,100293.34
2022-09-15T18:33:49.270Z,100292.06
2022-09-15T18:36:16.366Z,100304.09
2022-09-15T18:38:43.114Z,100310.41
2022-09-15T18:41:11.079Z,100308.22
2022-09-15T18:44:29.439Z,100311.63
2022-09-15T18:47:27.256Z,100311.44
2022-09-15T18:49:54.092Z,100314.31
2022-09-15T18:52:21.262Z,100316.00
2022-09-15T18:54:48.165Z,100315.13
2022-09-15T18:57:15.505Z,100321.31
2022-09-15T18:59:42.240Z,100318.78
2022-09-15T19:02:11.900Z,100320.47
2022-09-15T19:04:40.633Z,100328.91
2022-09-15T19:07:16.724Z,100324.13
2022-09-15T19:09:52.156Z,100325.16
2022-09-15T19:14:52.585Z,100337.53
2022-09-15T19:17:23.428Z,100339.72
2022-09-15T19:19:50.345Z,100335.69
2022-09-15T19:22:16.947Z,100334.63
2022-09-15T19:24:43.508Z,100339.28
2022-09-15T19:27:10.637Z,100344.53
2022-09-15T19:29:37.807Z,100336.91
2022-09-15T19:32:06.997Z,100342.09
2022-09-15T19:34:34.914Z,100339.13
2022-09-15T19:37:01.690Z,100343.16
2022-09-15T19:39:36.182Z,100342.69
2022-09-15T19:42:03.521Z,100341.03
2022-09-15T19:44:30.151Z,100332.34
2022-09-15T19:46:56.667Z,100327.94
2022-09-15T19:49:23.824Z,100333.47
2022-09-15T19:52:01.916Z,100331.44
2022-09-15T19:54:30.120Z,100330.00
2022-09-15T19:56:57.146Z,100330.31
2022-09-15T19:59:28.703Z,100321.53
2022-09-15T20:01:57.786Z,100334.59
2022-09-15T20:04:24.624Z,100327.91
2022-09-15T20:06:51.802Z,100343.97
2022-09-15T20:09:23.864Z,100339.78
2022-09-15T20:11:50.488Z,100343.91
2022-09-15T20:14:31.763Z,100345.66
2022-09-15T20:17:01.891Z,100338.56
2022-09-15T20:19:29.487Z,100336.25
2022-09-15T20:21:56.416Z,100337.91
2022-09-15T20:24:23.847Z,100345.94
2022-09-15T20:27:00.763Z,100339.03
2022-09-15T20:29:27.698Z,100350.19
2022-09-15T20:31:57.823Z,100344.88
2022-09-15T20:34:27.532Z,100346.34
2022-09-15T20:36:54.367Z,100343.38
2022-09-15T20:39:33.302Z,100341.53
2022-09-15T20:42:00.247Z,100340.88
2022-09-15T20:44:29.182Z,100344.66
2022-09-15T20:47:10.310Z,100358.13
2022-09-15T20:49:42.837Z,100350.75
2022-09-15T20:52:09.710Z,100357.50
2022-09-15T20:54:39.299Z,100359.41
2022-09-15T20:57:05.898Z,100354.53
2022-09-15T20:59:32.498Z,100352.63
2022-09-15T21:01:59.330Z,100358.31
2022-09-15T21:04:26.388Z,100361.69
2022-09-15T21:06:52.943Z,100359.19
2022-09-15T21:09:19.646Z,100362.38
2022-09-15T21:11:50.145Z,100363.44
2022-09-15T21:14:19.501Z,100353.94
2022-09-15T21:16:46.073Z,100358.13
2022-09-15T21:19:13.085Z,100355.22
2022-09-15T21:21:40.041Z,100355.69
2022-09-15T21:24:09.680Z,100363.09
2022-09-15T21:26:59.372Z,100360.84
2022-09-15T21:29:45.308Z,100363.41
2022-09-15T21:32:11.942Z,100358.81
2022-09-15T21:34:38.402Z,100363.50
2022-09-15T21:37:05.253Z,100360.56
2022-09-15T21:39:31.887Z,100362.47
2022-09-15T21:41:58.677Z,100357.22
2022-09-15T21:44:25.538Z,100362.72
2022-09-15T21:46:52.746Z,100360.00
2022-09-15T21:49:19.467Z,100357.69
2022-09-15T21:51:48.381Z,100356.66
2022-09-15T21:54:15.145Z,100357.91
2022-09-15T21:56:41.850Z,100358.16
2022-09-15T21:59:09.058Z,100362.38
2022-09-15T22:01:35.858Z,100363.59
2022-09-15T22:04:07.821Z,100361.09
2022-09-15T22:06:36.249Z,100362.78
2022-09-15T22:09:06.747Z,100362.19
2022-09-15T22:11:37.066Z,100368.03
2022-09-15T22:14:14.349Z,100372.88
2022-09-15T22:16:42.250Z,100363.63
2022-09-15T22:19:10.283Z,100364.47
2022-09-15T22:21:39.529Z,100366.97
2022-09-15T22:24:07.278Z,100372.00
2022-09-15T22:26:36.540Z,100376.19
2022-09-15T22:29:03.990Z,100380.19
2022-09-15T22:31:30.803Z,100374.53
2022-09-15T22:33:57.439Z,100374.97
2022-09-15T22:36:30.195Z,100372.69
2022-09-15T22:39:04.686Z,100377.91
2022-09-15T22:41:36.623Z,100374.16
2022-09-15T22:44:03.565Z,100369.31
2022-09-15T22:46:32.894Z,100373.91
2022-09-15T22:48:59.810Z,100361.53
2022-09-15T22:51:26.441Z,100367.41
2022-09-15T22:54:06.972Z,100364.69
2022-09-15T22:56:37.025Z,100369.06
2022-09-15T22:59:03.730Z,100364.44
2022-09-15T23:01:31.201Z,100363.59
2022-09-15T23:04:01.468Z,100357.13
2022-09-15T23:06:30.886Z,100359.88
2022-09-15T23:09:00.204Z,100355.25
2022-09-15T23:11:28.417Z,100347.06
2022-09-15T23:13:56.158Z,100338.84
2022-09-15T23:16:24.609Z,100349.56
2022-09-15T23:18:52.078Z,100343.25
2022-09-15T23:21:19.247Z,100348.72
2022-09-15T23:23:48.425Z,100353.34
2022-09-15T23:26:20.558Z,100355.03
2022-09-15T23:28:49.117Z,100358.59
2022-09-15T23:31:16.554Z,100367.00
2022-09-15T23:33:43.754Z,100358.16
2022-09-15T23:36:13.016Z,100355.00
2022-09-15T23:38:41.182Z,100354.59
2022-09-15T23:41:09.219Z,100351.03
2022-09-15T23:43:36.067Z,100345.56
2022-09-15T23:46:03.607Z,100354.59
2022-09-15T23:48:34.177Z,100349.75
2022-09-15T23:51:01.124Z,100347.41
2022-09-15T23:53:27.914Z,100352.28
2022-09-15T23:55:54.542Z,100345.56
2022-09-15T23:58:21.118Z,100359.81
